createdAt,value
2019-05-20T00:00:39.100Z,12.09
2019-05-20T00:03:10.685Z,12.08
2019-05-20T00:05:44.261Z,12.08
2019-05-20T00:08:19.069Z,12.07
2019-05-20T00:10:52.798Z,12.07
2019-05-20T00:13:25.749Z,12.07
2019-05-20T00:15:59.253Z,12.07
2019-05-20T00:18:31.866Z,12.08
2019-05-20T00:21:04.790Z,12.08
2019-05-20T00:23:39.616Z,12.04
2019-05-20T00:26:13.845Z,12.01
2019-05-20T00:28:45.892Z,11.90
2019-05-20T00:31:19.894Z,11.92
2019-05-20T00:33:53.700Z,11.91
2019-05-20T00:36:28.283Z,11.92
2019-05-20T00:39:20.987Z,11.92
2019-05-20T00:41:53.055Z,11.88
2019-05-20T00:44:25.988Z,11.82
2019-05-20T00:46:59.113Z,11.80
2019-05-20T00:49:31.159Z,11.79
2019-05-20T00:52:02.946Z,11.80
2019-05-20T00:54:37.025Z,11.78
2019-05-20T00:57:11.002Z,11.79
2019-05-20T00:59:44.846Z,11.76
2019-05-20T01:02:18.171Z,11.74
2019-05-20T01:04:49.593Z,11.70
2019-05-20T01:07:23.000Z,11.67
2019-05-20T01:09:55.782Z,11.63
2019-05-20T01:12:28.995Z,11.57
2019-05-20T01:15:01.014Z,11.60
2019-05-20T01:17:34.939Z,11.63
2019-05-20T01:20:07.651Z,11.66
2019-05-20T01:22:41.158Z,11.65
2019-05-20T01:25:14.013Z,11.65
2019-05-20T01:27:47.603Z,11.85
2019-05-20T01:30:21.970Z,11.95
2019-05-20T01:32:55.292Z,12.13
2019-05-20T01:35:28.974Z,12.29
2019-05-20T01:38:02.108Z,12.19
2019-05-20T01:40:35.280Z,12.15
2019-05-20T01:43:07.434Z,12.12
2019-05-20T01:45:40.352Z,12.10
2019-05-20T01:48:13.205Z,12.09
2019-05-20T01:50:46.279Z,12.10
2019-05-20T01:53:19.141Z,12.10
2019-05-20T01:55:51.171Z,12.12
2019-05-20T01:58:26.725Z,12.12
2019-05-20T02:00:59.220Z,12.15
2019-05-20T02:03:32.404Z,12.16
2019-05-20T02:06:06.237Z,12.16
2019-05-20T02:08:41.918Z,12.18
2019-05-20T02:11:16.247Z,12.21
2019-05-20T02:13:59.217Z,12.19
2019-05-20T02:16:33.995Z,12.18
2019-05-20T02:19:06.649Z,12.09
2019-05-20T02:21:40.420Z,12.04
2019-05-20T02:24:11.899Z,12.01
2019-05-20T02:26:43.469Z,12.00
2019-05-20T02:29:16.479Z,12.01
2019-05-20T02:31:48.300Z,12.01
2019-05-20T02:34:22.332Z,12.03
2019-05-20T02:36:55.734Z,12.04
2019-05-20T02:39:27.383Z,12.04
2019-05-20T02:42:00.407Z,12.07
2019-05-20T02:44:33.601Z,12.08
2019-05-20T02:47:07.033Z,12.09
2019-05-20T02:49:39.602Z,12.09
2019-05-20T02:52:11.566Z,12.07
2019-05-20T02:54:48.353Z,12.07
2019-05-20T02:57:20.517Z,12.06
2019-05-20T02:59:57.018Z,12.07
2019-05-20T03:02:28.611Z,12.04
2019-05-20T03:05:01.846Z,12.04
2019-05-20T03:07:34.703Z,12.03
2019-05-20T03:10:06.750Z,12.01
2019-05-20T03:12:40.496Z,11.98
2019-05-20T03:15:13.727Z,11.97
2019-05-20T03:17:45.694Z,11.97
2019-05-20T03:20:19.650Z,11.98
2019-05-20T03:22:53.431Z,11.98
2019-05-20T03:25:25.538Z,11.97
2019-05-20T03:27:58.613Z,11.98
2019-05-20T03:30:31.705Z,11.98
2019-05-20T03:33:04.764Z,12.00
2019-05-20T03:35:38.571Z,12.01
2019-05-20T03:38:10.772Z,12.03
2019-05-20T03:40:43.659Z,12.03
2019-05-20T03:43:16.541Z,12.02
2019-05-20T03:45:48.778Z,12.03
2019-05-20T03:48:22.795Z,12.05
2019-05-20T03:50:54.585Z,12.06
2019-05-20T03:53:28.693Z,12.07
2019-05-20T03:56:02.970Z,12.10
2019-05-20T03:58:36.777Z,12.11
2019-05-20T04:01:08.055Z,12.13
2019-05-20T04:03:40.725Z,12.13
2019-05-20T04:06:13.716Z,12.13
2019-05-20T04:08:46.773Z,12.13
2019-05-20T04:11:19.813Z,12.15
2019-05-20T04:13:52.939Z,12.14
2019-05-20T04:16:26.964Z,12.15
2019-05-20T04:18:58.733Z,12.16
2019-05-20T04:21:31.836Z,12.19
2019-05-20T04:24:03.872Z,12.20
2019-05-20T04:26:38.204Z,12.22
2019-05-20T04:29:11.087Z,12.24
2019-05-20T04:31:43.908Z,12.26
2019-05-20T04:34:16.869Z,12.28
2019-05-20T04:36:49.937Z,12.31
2019-05-20T04:39:22.886Z,12.31
2019-05-20T04:41:56.970Z,12.31
2019-05-20T04:44:30.511Z,12.34
2019-05-20T04:47:06.021Z,12.33
2019-05-20T04:49:38.100Z,12.36
2019-05-20T04:52:11.107Z,12.38
2019-05-20T04:54:45.635Z,12.39
2019-05-20T04:57:17.075Z,12.42
2019-05-20T04:59:50.022Z,12.44
2019-05-20T05:02:23.009Z,12.46
2019-05-20T05:04:57.146Z,12.49
2019-05-20T05:07:29.170Z,12.53
2019-05-20T05:10:12.820Z,12.54
2019-05-20T05:12:47.207Z,12.53
2019-05-20T05:15:20.193Z,12.55
2019-05-20T05:17:53.256Z,12.56
2019-05-20T05:20:26.145Z,12.60
2019-05-20T05:23:02.322Z,12.64
2019-05-20T05:25:35.955Z,12.68
2019-05-20T05:28:18.762Z,12.72
2019-05-20T05:30:50.156Z,12.76
2019-05-20T05:33:25.516Z,12.80
2019-05-20T05:36:00.333Z,12.83
2019-05-20T05:38:32.301Z,12.85
2019-05-20T05:41:04.253Z,12.86
2019-05-20T05:43:39.825Z,12.89
2019-05-20T05:46:11.139Z,12.90
2019-05-20T05:48:44.302Z,12.93
2019-05-20T05:51:17.209Z,12.92
2019-05-20T05:53:49.841Z,12.97
2019-05-20T05:56:23.309Z,12.95
2019-05-20T05:58:55.340Z,12.96
2019-05-20T06:01:29.327Z,12.99
2019-05-20T06:04:04.336Z,13.00
2019-05-20T06:06:38.481Z,13.01
2019-05-20T06:09:11.392Z,13.01
2019-05-20T06:11:46.893Z,13.04
2019-05-20T06:14:21.949Z,13.08
2019-05-20T06:16:53.298Z,13.09
2019-05-20T06:19:26.377Z,13.10
2019-05-20T06:21:58.501Z,13.15
2019-05-20T06:24:31.628Z,13.19
2019-05-20T06:27:03.529Z,13.23
2019-05-20T06:29:37.456Z,13.24
2019-05-20T06:32:11.611Z,13.27
2019-05-20T06:34:44.580Z,13.29
2019-05-20T06:37:21.610Z,13.27
2019-05-20T06:39:56.523Z,13.30
2019-05-20T06:42:29.454Z,13.29
2019-05-20T06:45:03.468Z,13.24
2019-05-20T06:47:35.586Z,13.20
2019-05-20T06:50:08.531Z,13.22
2019-05-20T06:52:41.578Z,13.21
2019-05-20T06:55:14.663Z,13.23
2019-05-20T06:57:48.590Z,13.19
2019-05-20T07:00:34.946Z,13.18
2019-05-20T07:03:06.809Z,13.20
2019-05-20T07:05:40.673Z,13.22
2019-05-20T07:08:13.558Z,13.22
2019-05-20T07:10:49.333Z,13.24
2019-05-20T07:13:22.685Z,13.27
2019-05-20T07:15:55.675Z,13.28
2019-05-20T07:18:28.676Z,13.32
2019-05-20T07:21:01.615Z,13.34
2019-05-20T07:23:34.679Z,13.32
2019-05-20T07:26:07.758Z,13.25
2019-05-20T07:28:40.660Z,13.28
2019-05-20T07:31:13.644Z,13.30
2019-05-20T07:33:46.609Z,13.29
2019-05-20T07:36:18.795Z,13.31
2019-05-20T07:38:52.874Z,13.33
2019-05-20T07:41:25.672Z,13.31
2019-05-20T07:43:58.794Z,13.32
2019-05-20T07:46:33.040Z,13.34
2019-05-20T07:49:04.878Z,13.32
2019-05-20T07:51:37.207Z,13.33
2019-05-20T07:54:09.083Z,13.36
2019-05-20T07:56:45.296Z,13.36
2019-05-20T07:59:19.129Z,13.34
2019-05-20T08:01:52.890Z,13.35
2019-05-20T08:04:26.057Z,13.35
2019-05-20T08:07:00.014Z,13.38
2019-05-20T08:09:31.851Z,13.39
2019-05-20T08:12:04.788Z,13.37
2019-05-20T08:14:36.874Z,13.37
2019-05-20T08:17:08.375Z,13.37
2019-05-20T08:19:40.974Z,13.41
2019-05-20T08:22:13.950Z,13.46
2019-05-20T08:24:47.984Z,13.51
2019-05-20T08:27:19.839Z,13.53
2019-05-20T08:29:52.028Z,13.53
2019-05-20T08:32:24.946Z,13.58
2019-05-20T08:35:00.656Z,13.63
2019-05-20T08:37:45.028Z,13.67
2019-05-20T08:40:06.264Z,13.70
2019-05-20T08:42:37.981Z,13.67
2019-05-20T08:45:11.275Z,13.68
2019-05-20T08:47:44.069Z,13.62
2019-05-20T08:50:17.056Z,13.66
2019-05-20T08:52:50.159Z,13.70
2019-05-20T08:55:23.234Z,13.83
2019-05-20T08:57:56.258Z,13.91
2019-05-20T09:00:29.017Z,14.01
2019-05-20T09:03:04.601Z,14.04
2019-05-20T09:05:38.061Z,14.14
2019-05-20T09:08:11.165Z,14.21
2019-05-20T09:10:44.425Z,14.16
2019-05-20T09:13:17.270Z,14.11
2019-05-20T09:15:50.188Z,14.15
2019-05-20T09:18:23.219Z,14.21
2019-05-20T09:20:57.120Z,14.26
2019-05-20T09:23:29.302Z,14.34
2019-05-20T09:26:00.849Z,14.49
2019-05-20T09:28:32.232Z,14.58
2019-05-20T09:31:06.609Z,14.61
2019-05-20T09:33:40.010Z,14.72
2019-05-20T09:36:14.531Z,14.76
2019-05-20T09:38:46.216Z,14.75
2019-05-20T09:41:21.977Z,14.88
2019-05-20T09:43:53.307Z,14.87
2019-05-20T09:46:25.289Z,14.97
2019-05-20T09:48:58.344Z,15.09
2019-05-20T09:51:31.524Z,15.04
2019-05-20T09:54:05.526Z,15.14
2019-05-20T09:56:38.425Z,15.09
2019-05-20T09:59:11.637Z,15.34
2019-05-20T10:01:43.457Z,15.28
2019-05-20T10:04:15.376Z,15.51
2019-05-20T10:06:48.408Z,15.65
2019-05-20T10:09:20.540Z,15.73
2019-05-20T10:11:53.615Z,15.80
2019-05-20T10:14:26.757Z,16.06
2019-05-20T10:17:00.397Z,16.19
2019-05-20T10:19:33.504Z,16.42
2019-05-20T10:22:05.489Z,16.34
2019-05-20T10:24:37.488Z,16.45
2019-05-20T10:27:09.054Z,16.39
2019-05-20T10:29:40.530Z,16.25
2019-05-20T10:32:14.591Z,16.36
2019-05-20T10:34:48.449Z,16.42
2019-05-20T10:37:20.685Z,16.47
2019-05-20T10:39:52.389Z,16.20
2019-05-20T10:42:26.403Z,16.31
2019-05-20T10:44:58.580Z,16.29
2019-05-20T10:47:33.515Z,16.42
2019-05-20T10:50:06.311Z,16.43
2019-05-20T10:52:38.488Z,16.61
2019-05-20T10:55:11.944Z,16.60
2019-05-20T10:57:44.853Z,16.55
2019-05-20T11:00:17.992Z,16.60
2019-05-20T11:02:49.794Z,16.73
2019-05-20T11:05:23.814Z,16.72
2019-05-20T11:07:56.962Z,16.64
2019-05-20T11:10:29.732Z,16.50
2019-05-20T11:13:02.850Z,16.64
2019-05-20T11:15:35.772Z,16.70
2019-05-20T11:18:08.062Z,16.48
2019-05-20T11:20:39.584Z,16.53
2019-05-20T11:23:11.877Z,16.58
2019-05-20T11:25:44.749Z,16.70
2019-05-20T11:28:17.713Z,16.73
2019-05-20T11:30:53.277Z,16.68
2019-05-20T11:33:24.899Z,16.79
2019-05-20T11:35:57.786Z,17.06
2019-05-20T11:38:30.795Z,17.32
2019-05-20T11:41:02.830Z,17.39
2019-05-20T11:43:35.985Z,17.70
2019-05-20T11:46:08.850Z,17.65
2019-05-20T11:48:44.391Z,17.59
2019-05-20T11:51:16.926Z,17.68
2019-05-20T11:53:49.941Z,17.99
2019-05-20T11:56:21.446Z,18.02
2019-05-20T11:58:52.859Z,18.10
2019-05-20T12:01:25.930Z,18.00
2019-05-20T12:03:57.959Z,17.92
2019-05-20T12:06:30.031Z,18.18
2019-05-20T12:09:04.394Z,18.35
2019-05-20T12:11:37.948Z,18.38
2019-05-20T12:14:10.933Z,18.43
2019-05-20T12:16:44.014Z,18.84
2019-05-20T12:19:17.192Z,18.76
2019-05-20T12:21:51.027Z,18.82
2019-05-20T12:24:24.091Z,18.70
2019-05-20T12:26:59.627Z,18.39
2019-05-20T12:29:32.038Z,18.43
2019-05-20T12:32:05.363Z,18.39
2019-05-20T12:34:37.246Z,18.21
2019-05-20T12:37:08.643Z,18.17
2019-05-20T12:39:41.274Z,18.13
2019-05-20T12:42:14.547Z,18.02
2019-05-20T12:44:48.187Z,17.95
2019-05-20T12:47:20.204Z,17.90
2019-05-20T12:49:54.648Z,17.94
2019-05-20T12:52:26.050Z,18.20
2019-05-20T12:55:08.044Z,18.48
2019-05-20T12:57:33.466Z,18.92
2019-05-20T13:00:10.222Z,19.18
2019-05-20T13:02:42.476Z,19.38
2019-05-20T13:05:17.422Z,19.57
2019-05-20T13:07:52.224Z,19.84
2019-05-20T13:10:32.608Z,20.08
2019-05-20T13:13:11.252Z,19.90
2019-05-20T13:15:51.692Z,20.01
2019-05-20T13:18:27.693Z,20.18
2019-05-20T13:21:09.330Z,19.97
2019-05-20T13:23:58.664Z,20.11
2019-05-20T13:26:23.806Z,20.34
2019-05-20T13:28:59.485Z,20.11
2019-05-20T13:31:39.947Z,19.94
2019-05-20T13:34:18.052Z,19.92
2019-05-20T13:36:59.976Z,19.76
2019-05-20T13:39:34.177Z,19.61
2019-05-20T13:42:08.287Z,19.36
2019-05-20T13:44:40.608Z,19.36
2019-05-20T13:47:16.929Z,19.36
2019-05-20T13:49:49.291Z,19.37
2019-05-20T13:52:23.221Z,19.26
2019-05-20T13:54:59.028Z,19.15
2019-05-20T13:57:36.302Z,19.34
2019-05-20T14:00:10.592Z,19.71
2019-05-20T14:02:53.300Z,19.65
2019-05-20T14:05:28.241Z,19.73
2019-05-20T14:08:08.110Z,19.83
2019-05-20T14:10:43.415Z,19.60
2019-05-20T14:13:21.218Z,19.58
2019-05-20T14:16:02.034Z,19.64
2019-05-20T14:18:34.673Z,19.75
2019-05-20T14:21:07.986Z,19.93
2019-05-20T14:23:44.298Z,20.07
2019-05-20T14:26:19.309Z,20.05
2019-05-20T14:28:51.700Z,19.78
2019-05-20T14:31:27.719Z,19.79
2019-05-20T14:33:59.863Z,19.53
2019-05-20T14:36:40.021Z,19.42
2019-05-20T14:39:19.355Z,19.79
2019-05-20T14:41:53.469Z,19.97
2019-05-20T14:44:26.844Z,19.96
2019-05-20T14:46:59.891Z,19.99
2019-05-20T14:49:36.736Z,19.70
2019-05-20T14:52:10.131Z,19.66
2019-05-20T14:54:48.930Z,19.75
2019-05-20T14:57:22.588Z,19.98
2019-05-20T15:00:00.569Z,19.91
2019-05-20T15:02:32.930Z,19.73
2019-05-20T15:05:16.396Z,19.61
2019-05-20T15:07:50.469Z,19.47
2019-05-20T15:10:26.644Z,19.38
2019-05-20T15:12:59.902Z,19.25
2019-05-20T15:15:36.219Z,19.32
2019-05-20T15:18:10.028Z,19.21
2019-05-20T15:20:41.973Z,19.18
2019-05-20T15:23:14.868Z,19.17
2019-05-20T15:25:49.829Z,19.22
2019-05-20T15:28:29.905Z,19.26
2019-05-20T15:31:06.487Z,19.20
2019-05-20T15:33:49.943Z,19.10
2019-05-20T15:36:26.178Z,18.98
2019-05-20T15:38:59.680Z,18.94
2019-05-20T15:41:33.114Z,18.79
2019-05-20T15:44:06.273Z,18.74
2019-05-20T15:46:39.233Z,18.69
2019-05-20T15:49:12.122Z,18.59
2019-05-20T15:51:47.065Z,18.57
2019-05-20T15:54:20.298Z,18.53
2019-05-20T15:56:56.875Z,18.51
2019-05-20T15:59:45.012Z,18.47
2019-05-20T16:02:04.354Z,18.44
2019-05-20T16:04:38.346Z,18.50
2019-05-20T16:07:12.153Z,18.53
2019-05-20T16:09:45.877Z,18.51
2019-05-20T16:12:18.156Z,18.44
2019-05-20T16:14:51.609Z,18.36
2019-05-20T16:17:24.357Z,18.39
2019-05-20T16:19:58.714Z,18.19
2019-05-20T16:22:31.541Z,18.11
2019-05-20T16:25:08.455Z,17.93
2019-05-20T16:27:42.382Z,17.87
2019-05-20T16:30:14.559Z,17.76
2019-05-20T16:32:48.249Z,17.69
2019-05-20T16:35:21.995Z,17.73
2019-05-20T16:37:55.313Z,17.72
2019-05-20T16:40:29.327Z,17.65
2019-05-20T16:43:03.376Z,17.66
2019-05-20T16:45:36.530Z,17.79
2019-05-20T16:48:08.343Z,17.83
2019-05-20T16:50:43.906Z,17.74
2019-05-20T16:53:17.265Z,17.75
2019-05-20T16:55:51.355Z,17.74
2019-05-20T16:58:23.497Z,17.67
2019-05-20T17:00:57.708Z,17.69
2019-05-20T17:03:44.371Z,17.65
2019-05-20T17:06:17.531Z,17.66
2019-05-20T17:08:55.611Z,17.58
2019-05-20T17:11:32.743Z,17.54
2019-05-20T17:14:05.445Z,17.50
2019-05-20T17:16:38.403Z,17.40
2019-05-20T17:19:12.571Z,17.31
2019-05-20T17:21:46.607Z,17.20
2019-05-20T17:24:23.638Z,17.11
2019-05-20T17:26:57.334Z,17.02
2019-05-20T17:29:28.758Z,17.02
2019-05-20T17:32:00.460Z,16.98
2019-05-20T17:34:35.052Z,17.06
2019-05-20T17:37:06.472Z,17.13
2019-05-20T17:39:39.052Z,17.20
2019-05-20T17:42:11.622Z,17.16
2019-05-20T17:44:44.404Z,17.18
2019-05-20T17:47:17.599Z,17.16
2019-05-20T17:49:49.633Z,17.14
2019-05-20T17:52:24.384Z,17.08
2019-05-20T17:54:56.756Z,17.05
2019-05-20T17:57:30.577Z,17.05
2019-05-20T18:00:03.029Z,16.99
2019-05-20T18:02:35.010Z,16.91
2019-05-20T18:05:06.915Z,16.82
2019-05-20T18:07:38.839Z,16.71
2019-05-20T18:10:15.490Z,16.70
2019-05-20T18:12:47.887Z,16.62
2019-05-20T18:15:21.046Z,16.54
2019-05-20T18:17:53.819Z,16.46
2019-05-20T18:20:27.026Z,16.38
2019-05-20T18:23:00.797Z,16.30
2019-05-20T18:25:32.652Z,16.18
2019-05-20T18:28:04.898Z,16.09
2019-05-20T18:30:36.796Z,16.00
2019-05-20T18:33:10.024Z,15.95
2019-05-20T18:35:43.927Z,15.84
2019-05-20T18:38:17.869Z,15.77
2019-05-20T18:40:50.920Z,15.72
2019-05-20T18:43:23.868Z,15.65
2019-05-20T18:45:56.275Z,15.11
2019-05-20T18:48:30.131Z,15.49
2019-05-20T18:51:04.916Z,15.42
2019-05-20T18:53:38.855Z,15.33
2019-05-20T18:56:11.819Z,15.24
2019-05-20T18:58:44.901Z,15.17
2019-05-20T19:01:19.773Z,15.09
2019-05-20T19:03:53.980Z,15.01
2019-05-20T19:06:28.002Z,14.95
2019-05-20T19:09:02.052Z,14.87
2019-05-20T19:11:36.133Z,14.79
2019-05-20T19:14:09.985Z,14.73
2019-05-20T19:16:41.991Z,14.61
2019-05-20T19:19:15.107Z,14.54
2019-05-20T19:21:48.167Z,14.51
2019-05-20T19:24:21.106Z,14.48
2019-05-20T19:26:53.896Z,14.45
2019-05-20T19:29:27.046Z,14.43
2019-05-20T19:32:02.043Z,14.43
2019-05-20T19:34:34.142Z,14.44
2019-05-20T19:37:07.288Z,14.45
2019-05-20T19:39:41.155Z,14.45
2019-05-20T19:42:15.366Z,14.43
2019-05-20T19:44:49.434Z,14.43
2019-05-20T19:47:21.043Z,14.42
2019-05-20T19:49:53.166Z,14.44
2019-05-20T19:52:25.330Z,14.45
2019-05-20T19:54:58.326Z,14.46
2019-05-20T19:57:31.250Z,14.43
2019-05-20T20:00:04.484Z,14.40
2019-05-20T20:02:36.643Z,14.38
2019-05-20T20:05:12.190Z,14.37
2019-05-20T20:07:45.367Z,14.40
2019-05-20T20:10:18.634Z,14.44
2019-05-20T20:12:51.542Z,14.46
2019-05-20T20:15:25.425Z,14.49
2019-05-20T20:18:00.192Z,14.50
2019-05-20T20:20:33.440Z,14.51
2019-05-20T20:23:07.511Z,14.51
2019-05-20T20:25:39.277Z,14.49
2019-05-20T20:28:14.529Z,14.48
2019-05-20T20:30:49.050Z,14.49
2019-05-20T20:33:22.465Z,14.51
2019-05-20T20:35:55.638Z,14.52
2019-05-20T20:38:27.201Z,14.53
2019-05-20T20:41:03.206Z,14.52
2019-05-20T20:43:38.163Z,14.51
2019-05-20T20:46:12.591Z,14.50
2019-05-20T20:48:46.396Z,14.50
2019-05-20T20:51:20.443Z,14.50
2019-05-20T20:53:54.475Z,14.50
2019-05-20T20:56:27.496Z,14.50
2019-05-20T20:58:59.594Z,14.50
2019-05-20T21:01:33.535Z,14.50
2019-05-20T21:04:07.326Z,14.49
2019-05-20T21:06:40.043Z,14.49
2019-05-20T21:09:11.479Z,14.49
2019-05-20T21:11:44.761Z,14.49
2019-05-20T21:14:18.746Z,14.48
2019-05-20T21:16:54.955Z,14.46
2019-05-20T21:19:26.561Z,14.44
2019-05-20T21:21:59.637Z,14.43
2019-05-20T21:24:34.342Z,14.41
2019-05-20T21:27:06.957Z,14.39
2019-05-20T21:29:38.667Z,14.38
2019-05-20T21:32:11.719Z,14.36
2019-05-20T21:34:45.125Z,14.32
2019-05-20T21:37:18.703Z,14.30
2019-05-20T21:39:53.183Z,14.28
2019-05-20T21:42:24.765Z,14.26
2019-05-20T21:44:57.851Z,14.24
2019-05-20T21:47:29.830Z,14.23
2019-05-20T21:50:03.441Z,14.23
2019-05-20T21:52:36.801Z,14.21
2019-05-20T21:55:10.486Z,14.17
2019-05-20T21:57:43.685Z,14.15
2019-05-20T22:00:22.821Z,14.12
2019-05-20T22:02:56.193Z,14.10
2019-05-20T22:05:29.794Z,14.05
2019-05-20T22:08:04.093Z,14.03
2019-05-20T22:10:36.792Z,14.01
2019-05-20T22:13:08.914Z,13.98
2019-05-20T22:15:41.948Z,13.96
2019-05-20T22:18:14.873Z,13.94
2019-05-20T22:20:46.992Z,13.90
2019-05-20T22:23:24.871Z,13.88
2019-05-20T22:25:58.328Z,13.87
2019-05-20T22:28:31.888Z,13.85
2019-05-20T22:31:05.953Z,13.83
2019-05-20T22:33:42.269Z,13.83
2019-05-20T22:36:12.570Z,13.83
2019-05-20T22:38:45.794Z,13.84
2019-05-20T22:41:18.772Z,13.82
2019-05-20T22:43:51.159Z,13.80
2019-05-20T22:46:23.966Z,13.79
2019-05-20T22:48:55.946Z,13.77
2019-05-20T22:51:29.996Z,13.76
2019-05-20T22:54:03.269Z,13.74
2019-05-20T22:56:35.020Z,13.72
2019-05-20T22:59:08.134Z,13.72
2019-05-20T23:01:39.653Z,13.73
2019-05-20T23:04:12.020Z,13.74
2019-05-20T23:06:45.138Z,13.74
2019-05-20T23:09:18.110Z,13.74
2019-05-20T23:11:53.873Z,13.71
2019-05-20T23:14:27.183Z,13.70
2019-05-20T23:17:00.024Z,13.67
2019-05-20T23:19:32.204Z,13.63
2019-05-20T23:22:05.868Z,13.60
2019-05-20T23:24:38.099Z,13.58
2019-05-20T23:27:09.478Z,13.54
2019-05-20T23:29:44.980Z,13.52
2019-05-20T23:32:18.009Z,13.51
2019-05-20T23:34:50.570Z,13.48
2019-05-20T23:37:26.561Z,13.46
2019-05-20T23:40:00.180Z,13.43
2019-05-20T23:42:32.905Z,13.40
2019-05-20T23:45:04.497Z,13.38
2019-05-20T23:47:36.741Z,13.32
2019-05-20T23:50:09.307Z,13.29
2019-05-20T23:52:42.212Z,13.25
2019-05-20T23:55:13.747Z,13.22
2019-05-20T23:57:45.261Z,13.17
